West Wickham, United Kingdom
Current Conditions -  °F | °C
As of 7:20 AM on Sunday 23 Nov 2014 (Local Time) from EGLC Reporting Station
Moderate Rain Moderate Rain  
Wind Chill: 50°   Ceiling: 900
Heat Index: 50°   Visibility: 6mi
Dew Point: 48°   Wind: 8mph
Humidity: 94%   Direction: 340°NNW
Pressure: 29.97"   Gusts: NA
Location:  51.37°N, 0.02°W
Report Text: EGLC 230720Z AUTO 34007KT 280V010 9999 RA FEW006/// SCT008/// BKN009/// 10/09 Q1015
Loading
Personal Weather Stations






























Interactive Weather Map New forecast layout! Learn more

10-Day Weather Forecast

Advertisements
Track Severe Weather on mobile